createdAt,value
2017-09-11T00:01:34.926Z,13.82
2017-09-11T00:04:06.742Z,13.73
2017-09-11T00:06:36.040Z,13.68
2017-09-11T00:09:05.516Z,13.79
2017-09-11T00:11:34.793Z,13.84
2017-09-11T00:14:07.886Z,13.99
2017-09-11T00:16:37.166Z,13.97
2017-09-11T00:19:06.592Z,13.82
2017-09-11T00:21:35.833Z,13.84
2017-09-11T00:24:06.409Z,13.50
2017-09-11T00:26:37.419Z,13.40
2017-09-11T00:29:07.061Z,13.67
2017-09-11T00:31:36.498Z,13.53
2017-09-11T00:34:06.266Z,13.54
2017-09-11T00:36:36.218Z,13.67
2017-09-11T00:39:06.965Z,14.04
2017-09-11T00:41:36.972Z,13.88
2017-09-11T00:44:07.477Z,13.79
2017-09-11T00:46:36.908Z,13.98
2017-09-11T00:49:06.857Z,13.65
2017-09-11T00:51:37.749Z,13.76
2017-09-11T00:54:09.559Z,13.74
2017-09-11T00:56:41.889Z,14.07
2017-09-11T00:59:12.814Z,13.68
2017-09-11T01:01:43.968Z,13.84
2017-09-11T01:04:14.187Z,13.76
2017-09-11T01:06:50.439Z,14.03
2017-09-11T01:09:19.957Z,13.43
2017-09-11T01:11:49.275Z,13.84
2017-09-11T01:14:20.595Z,13.83
2017-09-11T01:16:49.938Z,13.84
2017-09-11T01:19:20.441Z,13.95
2017-09-11T01:21:50.396Z,13.97
2017-09-11T01:24:20.169Z,14.10
2017-09-11T01:26:51.350Z,14.21
2017-09-11T01:29:21.385Z,14.31
2017-09-11T01:31:52.663Z,14.19
2017-09-11T01:34:23.483Z,14.22
2017-09-11T01:36:54.015Z,14.26
2017-09-11T01:39:23.645Z,14.38
2017-09-11T01:41:52.901Z,14.06
2017-09-11T01:44:22.892Z,14.05
2017-09-11T01:46:52.396Z,14.21
2017-09-11T01:49:22.925Z,14.29
2017-09-11T01:51:52.214Z,14.14
2017-09-11T01:54:21.421Z,13.90
2017-09-11T01:56:51.701Z,14.11
2017-09-11T01:59:22.897Z,13.86
2017-09-11T02:01:52.188Z,13.99
2017-09-11T02:04:21.653Z,14.11
2017-09-11T02:06:51.002Z,14.42
2017-09-11T02:09:22.769Z,14.69
2017-09-11T02:11:54.821Z,14.07
2017-09-11T02:14:24.442Z,14.17
2017-09-11T02:16:54.740Z,14.07
2017-09-11T02:19:26.393Z,14.02
2017-09-11T02:21:55.704Z,13.84
2017-09-11T02:24:26.494Z,14.05
2017-09-11T02:26:55.802Z,13.87
2017-09-11T02:29:26.587Z,13.87
2017-09-11T02:31:57.000Z,14.08
2017-09-11T02:34:26.840Z,14.14
2017-09-11T02:36:56.697Z,14.16
2017-09-11T02:39:26.409Z,14.20
2017-09-11T02:41:55.835Z,13.93
2017-09-11T02:44:25.973Z,14.02
2017-09-11T02:46:55.289Z,14.18
2017-09-11T02:49:26.273Z,14.46
2017-09-11T02:51:56.403Z,14.24
2017-09-11T02:54:27.110Z,14.54
2017-09-11T02:56:56.449Z,14.22
2017-09-11T02:59:25.809Z,14.39
2017-09-11T03:01:55.133Z,14.63
2017-09-11T03:04:24.392Z,14.60
2017-09-11T03:06:53.933Z,14.83
2017-09-11T03:09:23.229Z,14.62
2017-09-11T03:11:52.549Z,14.59
2017-09-11T03:14:21.817Z,14.84
2017-09-11T03:16:52.534Z,15.08
2017-09-11T03:19:23.920Z,15.17
2017-09-11T03:21:54.467Z,15.04
2017-09-11T03:24:25.466Z,14.85
2017-09-11T03:26:55.565Z,14.82
2017-09-11T03:29:24.819Z,14.67
2017-09-11T03:31:55.314Z,14.64
2017-09-11T03:34:24.993Z,14.47
2017-09-11T03:36:54.246Z,14.52
2017-09-11T03:39:23.561Z,14.24
2017-09-11T03:41:54.376Z,14.12
2017-09-11T03:44:25.338Z,14.72
2017-09-11T03:46:54.845Z,14.54
2017-09-11T03:49:25.407Z,14.66
2017-09-11T03:51:55.874Z,14.92
2017-09-11T03:54:27.204Z,15.10
2017-09-11T03:56:57.305Z,14.96
2017-09-11T03:59:27.657Z,15.17
2017-09-11T04:01:57.094Z,15.23
2017-09-11T04:04:28.372Z,14.99
2017-09-11T04:06:59.323Z,14.92
2017-09-11T04:09:30.823Z,15.05
2017-09-11T04:12:00.448Z,15.04
2017-09-11T04:14:31.610Z,14.75
2017-09-11T04:17:03.988Z,14.69
2017-09-11T04:19:36.397Z,15.06
2017-09-11T04:22:17.305Z,14.85
2017-09-11T04:24:48.820Z,14.75
2017-09-11T04:27:18.125Z,14.45
2017-09-11T04:29:47.841Z,14.49
2017-09-11T04:32:17.129Z,14.53
2017-09-11T04:34:47.518Z,14.62
2017-09-11T04:37:16.720Z,14.56
2017-09-11T04:39:48.082Z,14.59
2017-09-11T04:42:17.364Z,14.78
2017-09-11T04:44:47.041Z,14.97
2017-09-11T04:47:17.853Z,14.61
2017-09-11T04:49:47.153Z,14.66
2017-09-11T04:52:17.157Z,14.69
2017-09-11T04:54:46.769Z,14.63
2017-09-11T04:57:16.062Z,14.54
2017-09-11T04:59:46.301Z,14.23
2017-09-11T05:02:15.729Z,14.46
2017-09-11T05:04:45.069Z,14.57
2017-09-11T05:07:15.645Z,14.22
2017-09-11T05:09:45.998Z,14.29
2017-09-11T05:12:16.801Z,14.52
2017-09-11T05:14:53.670Z,14.24
2017-09-11T05:17:23.169Z,13.67
2017-09-11T05:19:53.881Z,14.25
2017-09-11T05:22:24.233Z,14.30
2017-09-11T05:24:54.047Z,13.94
2017-09-11T05:27:24.603Z,14.10
2017-09-11T05:29:56.377Z,14.18
2017-09-11T05:32:26.322Z,14.52
2017-09-11T05:34:58.701Z,14.34
2017-09-11T05:37:29.095Z,14.46
2017-09-11T05:40:00.090Z,14.55
2017-09-11T05:42:31.282Z,14.27
2017-09-11T05:45:03.510Z,14.43
2017-09-11T05:47:35.181Z,14.02
2017-09-11T05:50:12.045Z,14.17
2017-09-11T05:52:43.401Z,14.09
2017-09-11T05:55:19.161Z,14.18
2017-09-11T05:57:49.826Z,14.58
2017-09-11T06:00:25.975Z,14.63
2017-09-11T06:02:56.801Z,14.60
2017-09-11T06:05:26.372Z,14.53
2017-09-11T06:07:56.666Z,14.37
2017-09-11T06:10:29.684Z,14.42
2017-09-11T06:13:00.191Z,14.28
2017-09-11T06:15:31.966Z,14.31
2017-09-11T06:18:03.301Z,14.24
2017-09-11T06:20:35.509Z,14.39
2017-09-11T06:23:10.320Z,14.57
2017-09-11T06:25:39.863Z,14.72
2017-09-11T06:28:13.993Z,14.68
2017-09-11T06:30:43.928Z,14.83
2017-09-11T06:33:14.208Z,14.84
2017-09-11T06:35:46.059Z,14.82
2017-09-11T06:38:15.327Z,14.67
2017-09-11T06:40:45.523Z,14.96
2017-09-11T06:43:15.314Z,14.53
2017-09-11T06:45:44.928Z,15.03
2017-09-11T06:48:14.947Z,15.24
2017-09-11T06:50:44.470Z,15.06
2017-09-11T06:53:14.745Z,14.65
2017-09-11T06:55:44.025Z,14.98
2017-09-11T06:58:13.282Z,14.83
2017-09-11T07:00:42.681Z,15.30
2017-09-11T07:03:12.700Z,15.10
2017-09-11T07:05:44.519Z,14.93
2017-09-11T07:08:15.421Z,15.25
2017-09-11T07:10:45.061Z,15.14
2017-09-11T07:13:32.305Z,15.25
2017-09-11T07:16:04.802Z,15.78
2017-09-11T07:18:35.838Z,15.88
2017-09-11T07:21:09.197Z,15.64
2017-09-11T07:23:39.209Z,15.83
2017-09-11T07:26:10.547Z,15.74
2017-09-11T07:28:40.013Z,15.75
2017-09-11T07:31:10.496Z,15.65
2017-09-11T07:33:39.757Z,15.84
2017-09-11T07:36:16.972Z,15.47
2017-09-11T07:38:46.199Z,15.34
2017-09-11T07:41:15.476Z,15.28
2017-09-11T07:43:44.842Z,15.09
2017-09-11T07:46:14.342Z,14.94
2017-09-11T07:48:43.756Z,15.32
2017-09-11T07:51:13.058Z,15.32
2017-09-11T07:53:45.075Z,15.39
2017-09-11T07:56:14.393Z,15.17
2017-09-11T07:58:52.217Z,14.75
2017-09-11T08:01:21.630Z,14.65
2017-09-11T08:03:52.903Z,14.72
2017-09-11T08:06:22.150Z,14.92
2017-09-11T08:08:52.310Z,14.51
2017-09-11T08:11:25.162Z,14.51
2017-09-11T08:13:54.804Z,14.81
2017-09-11T08:16:24.186Z,14.77
2017-09-11T08:18:53.630Z,14.92
2017-09-11T08:21:23.723Z,15.24
2017-09-11T08:23:55.210Z,15.03
2017-09-11T08:26:25.282Z,15.01
2017-09-11T08:28:56.517Z,15.13
2017-09-11T08:31:26.417Z,15.14
2017-09-11T08:33:55.991Z,15.18
2017-09-11T08:36:31.421Z,14.97
2017-09-11T08:39:05.635Z,15.14
2017-09-11T08:41:36.781Z,15.22
2017-09-11T08:44:12.412Z,15.57
2017-09-11T08:46:41.839Z,15.51
2017-09-11T08:49:13.637Z,15.61
2017-09-11T08:51:43.120Z,15.92
2017-09-11T08:54:12.853Z,16.03
2017-09-11T08:56:43.749Z,16.08
2017-09-11T08:59:17.312Z,16.44
2017-09-11T09:01:46.693Z,15.88
2017-09-11T09:04:17.188Z,15.35
2017-09-11T09:06:46.821Z,15.71
2017-09-11T09:09:16.283Z,15.58
2017-09-11T09:11:46.052Z,15.50
2017-09-11T09:14:15.466Z,16.03
2017-09-11T09:16:44.709Z,16.07
2017-09-11T09:19:14.393Z,15.79
2017-09-11T09:21:44.846Z,15.64
2017-09-11T09:24:14.075Z,15.38
2017-09-11T09:26:43.438Z,15.34
2017-09-11T09:29:12.665Z,15.33
2017-09-11T09:31:42.306Z,14.87
2017-09-11T09:34:11.552Z,15.49
2017-09-11T09:36:41.097Z,15.20
2017-09-11T09:39:10.920Z,15.11
2017-09-11T09:41:43.345Z,15.10
2017-09-11T09:44:12.622Z,15.32
2017-09-11T09:46:42.290Z,15.20
2017-09-11T09:49:13.438Z,15.21
2017-09-11T09:51:43.091Z,15.06
2017-09-11T09:54:12.454Z,14.80
2017-09-11T09:56:46.411Z,15.10
2017-09-11T09:59:15.834Z,14.88
2017-09-11T10:01:45.101Z,15.21
2017-09-11T10:04:15.025Z,14.95
2017-09-11T10:06:44.614Z,15.14
2017-09-11T10:09:14.303Z,15.41
2017-09-11T10:11:43.990Z,15.53
2017-09-11T10:14:13.544Z,15.48
2017-09-11T10:16:43.121Z,15.05
2017-09-11T10:19:12.432Z,15.37
2017-09-11T10:21:42.396Z,15.51
2017-09-11T10:24:13.318Z,15.43
2017-09-11T10:26:42.685Z,15.64
2017-09-11T10:29:19.434Z,15.50
2017-09-11T10:40:18.904Z,15.92
2017-09-11T10:42:48.193Z,15.74
2017-09-11T10:45:24.760Z,15.33
2017-09-11T10:47:59.200Z,15.65
2017-09-11T10:50:29.490Z,15.25
2017-09-11T10:52:58.756Z,15.21
2017-09-11T10:55:28.170Z,14.96
2017-09-11T10:57:58.714Z,15.15
2017-09-11T11:00:34.557Z,15.27
2017-09-11T11:03:08.366Z,15.51
2017-09-11T11:05:37.635Z,15.50
2017-09-11T11:08:09.349Z,15.79
2017-09-11T11:10:40.938Z,15.63
2017-09-11T11:13:10.404Z,15.72
2017-09-11T11:15:40.937Z,15.90
2017-09-11T11:18:10.542Z,16.07
2017-09-11T11:20:39.837Z,16.17
2017-09-11T11:23:09.486Z,15.93
2017-09-11T11:25:38.806Z,16.04
2017-09-11T11:28:08.569Z,16.30
2017-09-11T11:30:38.866Z,16.69
2017-09-11T11:33:08.165Z,16.88
2017-09-11T11:35:37.995Z,16.66
2017-09-11T11:38:07.336Z,16.94
2017-09-11T11:40:36.967Z,17.20
2017-09-11T11:43:30.440Z,16.91
2017-09-11T11:46:15.902Z,16.58
2017-09-11T11:48:45.485Z,16.50
2017-09-11T11:51:15.292Z,16.67
2017-09-11T11:53:49.735Z,16.53
2017-09-11T11:56:19.075Z,16.13
2017-09-11T11:58:48.442Z,16.35
2017-09-11T12:01:18.145Z,16.65
2017-09-11T12:04:49.160Z,16.68
2017-09-11T12:07:18.605Z,16.83
2017-09-11T12:09:48.350Z,17.10
2017-09-11T12:14:56.732Z,17.32
2017-09-11T12:17:28.049Z,17.40
2017-09-11T12:19:57.322Z,17.80
2017-09-11T12:22:26.641Z,17.61
2017-09-11T12:25:01.105Z,17.64
2017-09-11T12:27:30.617Z,17.73
2017-09-11T12:30:02.179Z,17.49
2017-09-11T12:32:31.755Z,17.50
2017-09-11T12:35:01.901Z,17.69
2017-09-11T12:37:36.921Z,17.78
2017-09-11T12:40:09.194Z,17.67
2017-09-11T12:42:39.465Z,17.84
2017-09-11T12:45:10.190Z,18.42
2017-09-11T12:47:40.569Z,18.45
2017-09-11T12:50:10.934Z,18.44
2017-09-11T12:52:40.634Z,18.74
2017-09-11T12:55:13.192Z,18.66
2017-09-11T12:57:44.588Z,18.28
2017-09-11T13:00:15.664Z,18.31
2017-09-11T13:02:45.393Z,18.43
2017-09-11T13:05:16.462Z,18.72
2017-09-11T13:07:47.385Z,18.98
2017-09-11T13:10:16.642Z,18.76
2017-09-11T13:12:48.169Z,18.75
2017-09-11T13:15:18.349Z,18.79
2017-09-11T13:17:48.611Z,18.82
2017-09-11T13:20:25.861Z,19.01
2017-09-11T13:23:05.505Z,18.89
2017-09-11T13:25:39.675Z,18.61
2017-09-11T13:28:12.210Z,18.88
2017-09-11T13:30:41.769Z,18.90
2017-09-11T13:33:11.853Z,19.22
2017-09-11T13:35:41.318Z,19.11
2017-09-11T13:38:12.264Z,19.03
2017-09-11T13:40:42.265Z,19.18
2017-09-11T13:43:12.705Z,18.82
2017-09-11T13:45:42.403Z,18.77
2017-09-11T13:48:13.298Z,19.03
2017-09-11T13:50:44.200Z,19.34
2017-09-11T13:53:15.195Z,18.70
2017-09-11T13:55:45.473Z,18.87
2017-09-11T13:58:14.776Z,19.03
2017-09-11T14:00:46.028Z,19.05
2017-09-11T14:03:16.742Z,19.27
2017-09-11T14:05:48.413Z,18.62
2017-09-11T14:08:21.874Z,18.67
2017-09-11T14:10:55.622Z,18.37
2017-09-11T14:13:27.370Z,18.10
2017-09-11T14:15:58.702Z,18.19
2017-09-11T14:18:29.238Z,17.89
2017-09-11T14:21:01.126Z,17.72
2017-09-11T14:23:35.974Z,17.64
2017-09-11T14:26:05.352Z,17.79
2017-09-11T14:28:35.249Z,17.84
2017-09-11T14:31:09.076Z,17.73
2017-09-11T14:33:42.063Z,17.11
2017-09-11T14:36:11.754Z,16.69
2017-09-11T14:38:42.646Z,17.00
2017-09-11T14:41:12.559Z,17.20
2017-09-11T14:43:43.056Z,17.22
2017-09-11T14:46:12.369Z,17.32
2017-09-11T14:48:43.043Z,18.05
2017-09-11T14:51:12.819Z,18.14
2017-09-11T14:53:43.985Z,18.09
2017-09-11T14:56:14.749Z,17.72
2017-09-11T14:58:50.401Z,17.94
2017-09-11T15:01:19.868Z,17.95
2017-09-11T15:03:50.141Z,18.39
2017-09-11T15:06:25.267Z,18.39
2017-09-11T15:09:05.281Z,18.72
2017-09-11T15:11:36.909Z,18.55
2017-09-11T15:14:12.649Z,18.88
2017-09-11T15:16:47.286Z,18.56
2017-09-11T15:19:19.360Z,18.54
2017-09-11T15:21:54.206Z,18.35
2017-09-11T15:24:24.477Z,18.32
2017-09-11T15:26:55.545Z,18.24
2017-09-11T15:29:26.999Z,17.88
2017-09-11T15:31:56.428Z,18.18
2017-09-11T15:34:28.736Z,18.05
2017-09-11T15:36:59.140Z,17.71
2017-09-11T15:39:31.130Z,17.48
2017-09-11T15:42:01.986Z,17.53
2017-09-11T15:44:32.651Z,17.52
2017-09-11T15:47:05.030Z,17.31
2017-09-11T15:49:34.566Z,16.63
2017-09-11T15:52:08.580Z,16.30
2017-09-11T15:57:22.117Z,16.46
2017-09-11T16:02:46.634Z,16.34
2017-09-11T16:05:18.222Z,16.40
2017-09-11T16:07:48.221Z,16.42
2017-09-11T16:10:19.018Z,16.50
2017-09-11T16:12:50.290Z,16.27
2017-09-11T16:15:20.951Z,16.22
2017-09-11T16:17:51.657Z,16.19
2017-09-11T16:20:21.970Z,16.06
2017-09-11T16:22:51.838Z,16.27
2017-09-11T16:25:21.688Z,16.03
2017-09-11T16:27:53.898Z,15.76
2017-09-11T16:30:24.128Z,15.95
2017-09-11T16:32:55.110Z,15.80
2017-09-11T16:35:30.595Z,15.92
2017-09-11T16:38:00.299Z,16.11
2017-09-11T16:40:31.046Z,16.17
2017-09-11T16:43:00.699Z,15.80
2017-09-11T16:45:30.167Z,15.85
2017-09-11T16:48:00.005Z,15.72
2017-09-11T16:50:29.959Z,15.80
2017-09-11T16:52:59.980Z,15.99
2017-09-11T16:55:30.540Z,16.00
2017-09-11T16:57:59.922Z,15.86
2017-09-11T17:00:29.784Z,16.24
2017-09-11T17:03:03.177Z,16.26
2017-09-11T17:05:34.023Z,16.39
2017-09-11T17:08:04.959Z,16.28
2017-09-11T17:10:36.041Z,16.28
2017-09-11T17:13:08.125Z,16.25
2017-09-11T17:15:39.031Z,16.25
2017-09-11T17:18:09.893Z,16.32
2017-09-11T17:20:40.448Z,16.08
2017-09-11T17:23:10.285Z,15.91
2017-09-11T17:25:40.333Z,15.76
2017-09-11T17:28:15.273Z,15.84
2017-09-11T17:30:47.615Z,15.52
2017-09-11T17:33:16.914Z,15.57
2017-09-11T17:35:47.494Z,15.61
2017-09-11T17:38:18.483Z,15.66
2017-09-11T17:40:48.506Z,15.39
2017-09-11T17:43:17.964Z,15.32
2017-09-11T17:45:49.753Z,15.63
2017-09-11T17:48:19.163Z,15.53
2017-09-11T17:50:48.917Z,15.53
2017-09-11T17:53:19.077Z,15.72
2017-09-11T17:55:48.777Z,15.64
2017-09-11T17:58:22.024Z,15.84
2017-09-11T18:00:51.377Z,15.76
2017-09-11T18:03:23.313Z,15.69
2017-09-11T18:05:55.069Z,15.73
2017-09-11T18:08:25.737Z,16.02
2017-09-11T18:10:55.445Z,16.07
2017-09-11T18:15:35.546Z,15.98
2017-09-11T18:18:05.023Z,15.99
2017-09-11T18:20:35.198Z,16.01
2017-09-11T18:23:04.822Z,15.47
2017-09-11T18:25:35.649Z,15.50
2017-09-11T18:28:11.389Z,15.81
2017-09-11T18:30:40.861Z,15.61
2017-09-11T18:33:10.151Z,15.47
2017-09-11T18:35:41.257Z,15.72
2017-09-11T18:38:44.140Z,15.68
2017-09-11T18:41:14.468Z,15.26
2017-09-11T18:43:43.848Z,15.38
2017-09-11T18:46:13.885Z,15.07
2017-09-11T18:48:43.101Z,15.38
2017-09-11T18:51:12.456Z,15.19
2017-09-11T18:53:43.617Z,15.18
2017-09-11T18:56:12.890Z,15.23
2017-09-11T18:58:49.536Z,15.18
2017-09-11T19:30:31.353Z,14.39
2017-09-11T19:33:26.175Z,14.64
2017-09-11T19:36:15.104Z,14.21
2017-09-11T19:38:48.931Z,14.17
2017-09-11T19:41:19.544Z,14.12
2017-09-11T19:43:51.316Z,13.96
2017-09-11T19:46:23.971Z,14.13
2017-09-11T19:48:55.686Z,14.15
2017-09-11T19:51:35.928Z,14.58
2017-09-11T19:54:09.653Z,14.41
2017-09-11T19:56:40.674Z,14.41
2017-09-11T19:59:14.761Z,14.23
2017-09-11T20:01:47.769Z,14.00
2017-09-11T20:04:22.495Z,13.98
2017-09-11T20:06:54.701Z,13.75
2017-09-11T20:09:28.236Z,13.96
2017-09-11T20:12:01.579Z,13.82
2017-09-11T20:14:34.950Z,13.90
2017-09-11T20:17:08.954Z,13.97
2017-09-11T20:19:41.817Z,14.00
2017-09-11T20:22:15.636Z,14.18
2017-09-11T20:24:47.753Z,13.89
2017-09-11T20:27:20.739Z,13.96
2017-09-11T20:29:53.522Z,14.05
2017-09-11T20:32:26.246Z,14.04
2017-09-11T20:34:57.168Z,13.85
2017-09-11T20:37:30.809Z,14.14
2017-09-11T20:40:05.065Z,14.51
2017-09-11T20:42:37.878Z,14.26
2017-09-11T20:45:12.677Z,14.47
2017-09-11T20:47:46.048Z,14.19
2017-09-11T20:50:18.810Z,14.33
2017-09-11T20:52:53.793Z,14.57
2017-09-11T20:55:27.895Z,14.48
2017-09-11T20:58:01.043Z,14.37
2017-09-11T21:00:34.964Z,14.50
2017-09-11T21:03:10.843Z,14.60
2017-09-11T21:05:45.680Z,14.04
2017-09-11T21:08:19.555Z,14.26
2017-09-11T21:10:51.291Z,14.23
2017-09-11T21:13:26.180Z,14.29
2017-09-11T21:15:58.222Z,14.37
2017-09-11T21:18:32.422Z,14.50
2017-09-11T21:21:10.173Z,14.44
2017-09-11T21:23:43.971Z,14.22
2017-09-11T21:26:15.120Z,14.08
2017-09-11T21:28:46.295Z,13.88
2017-09-11T21:31:16.430Z,14.04
2017-09-11T21:33:48.938Z,14.06
2017-09-11T21:36:20.274Z,14.26
2017-09-11T21:38:50.094Z,13.91
2017-09-11T21:41:22.028Z,14.12
2017-09-11T21:43:52.643Z,13.96
2017-09-11T21:46:24.901Z,14.19
2017-09-11T21:48:56.806Z,14.20
2017-09-11T21:51:27.081Z,13.94
2017-09-11T21:53:59.307Z,14.30
2017-09-11T21:56:35.207Z,14.43
2017-09-11T21:59:15.102Z,14.36
2017-09-11T22:01:47.632Z,14.30
2017-09-11T22:04:18.361Z,14.51
2017-09-11T22:06:50.842Z,14.34
2017-09-11T22:09:22.278Z,14.46
2017-09-11T22:11:53.104Z,14.60
2017-09-11T22:14:23.747Z,14.66
2017-09-11T22:16:54.993Z,14.76
2017-09-11T22:19:26.598Z,14.63
2017-09-11T22:21:57.997Z,14.73
2017-09-11T22:24:31.196Z,14.67
2017-09-11T22:27:03.445Z,14.57
2017-09-11T22:29:34.520Z,14.90
2017-09-11T22:32:06.546Z,14.18
2017-09-11T22:34:40.553Z,14.42
2017-09-11T22:37:12.481Z,14.62
2017-09-11T22:39:43.604Z,14.76
2017-09-11T22:42:15.169Z,14.59
2017-09-11T22:44:46.692Z,14.54
2017-09-11T22:47:17.814Z,14.39
2017-09-11T22:49:48.873Z,14.47
2017-09-11T22:52:19.210Z,14.67
2017-09-11T22:54:50.914Z,14.99
2017-09-11T22:57:21.545Z,15.31
2017-09-11T22:59:53.686Z,15.11
2017-09-11T23:02:24.289Z,15.37
2017-09-11T23:04:55.890Z,15.16
2017-09-11T23:07:26.929Z,14.90
2017-09-11T23:12:30.033Z,14.89
2017-09-11T23:15:02.923Z,14.59
2017-09-11T23:17:33.285Z,14.64
2017-09-11T23:20:07.303Z,14.86
2017-09-11T23:22:38.332Z,14.78
2017-09-11T23:25:14.308Z,14.55
2017-09-11T23:27:44.921Z,14.58
2017-09-11T23:30:16.599Z,14.81
2017-09-11T23:32:48.486Z,14.63
2017-09-11T23:35:20.668Z,14.53
2017-09-11T23:37:51.169Z,14.51
2017-09-11T23:40:23.302Z,14.28
2017-09-11T23:42:55.091Z,14.59
2017-09-11T23:45:24.989Z,14.52
2017-09-11T23:47:54.997Z,14.52
2017-09-11T23:50:25.032Z,14.73
2017-09-11T23:52:54.543Z,14.76
2017-09-11T23:55:23.784Z,14.86
2017-09-11T23:57:54.621Z,14.41
